sensor_id;sensor_type;location;lat;lon;timestamp;temperature;humidity
14093;DHT22;7123;49.468;10.992;2024-01-30T00:00:20;5.70;99.90
14093;DHT22;7123;49.468;10.992;2024-01-30T00:02:47;5.70;99.90
14093;DHT22;7123;49.468;10.992;2024-01-30T00:05:14;5.60;99.90
14093;DHT22;7123;49.468;10.992;2024-01-30T00:07:41;5.60;99.90
14093;DHT22;7123;49.468;10.992;2024-01-30T00:10:08;5.60;99.90
14093;DHT22;7123;49.468;10.992;2024-01-30T00:12:34;5.60;99.90
14093;DHT22;7123;49.468;10.992;2024-01-30T00:15:01;5.50;99.90
14093;DHT22;7123;49.468;10.992;2024-01-30T00:17:30;5.50;99.90
14093;DHT22;7123;49.468;10.992;2024-01-30T00:19:57;5.50;99.90
14093;DHT22;7123;49.468;10.992;2024-01-30T00:22:24;5.50;99.90
14093;DHT22;7123;49.468;10.992;2024-01-30T00:24:51;5.40;99.90
14093;DHT22;7123;49.468;10.992;2024-01-30T00:27:18;5.40;99.90
14093;DHT22;7123;49.468;10.992;2024-01-30T00:29:45;5.40;99.90
14093;DHT22;7123;49.468;10.992;2024-01-30T00:32:11;5.40;99.90
14093;DHT22;7123;49.468;10.992;2024-01-30T00:34:38;5.40;99.90
14093;DHT22;7123;49.468;10.992;2024-01-30T00:37:05;5.30;99.90
14093;DHT22;7123;49.468;10.992;2024-01-30T00:39:31;5.30;99.90
14093;DHT22;7123;49.468;10.992;2024-01-30T00:41:58;5.30;99.90
14093;DHT22;7123;49.468;10.992;2024-01-30T00:44:25;5.30;99.90
14093;DHT22;7123;49.468;10.992;2024-01-30T00:46:52;5.30;99.90
14093;DHT22;7123;49.468;10.992;2024-01-30T00:49:18;5.30;99.90
14093;DHT22;7123;49.468;10.992;2024-01-30T00:51:46;5.30;99.90
14093;DHT22;7123;49.468;10.992;2024-01-30T00:54:12;5.30;99.90
14093;DHT22;7123;49.468;10.992;2024-01-30T00:56:39;5.30;99.90
14093;DHT22;7123;49.468;10.992;2024-01-30T00:59:06;5.40;99.90
14093;DHT22;7123;49.468;10.992;2024-01-30T01:01:33;5.30;99.90
14093;DHT22;7123;49.468;10.992;2024-01-30T01:04:00;5.30;99.90
14093;DHT22;7123;49.468;10.992;2024-01-30T01:06:26;5.40;99.90
14093;DHT22;7123;49.468;10.992;2024-01-30T01:08:53;5.30;99.90
14093;DHT22;7123;49.468;10.992;2024-01-30T01:11:20;5.30;99.90
14093;DHT22;7123;49.468;10.992;2024-01-30T01:13:47;5.30;99.90
14093;DHT22;7123;49.468;10.992;2024-01-30T01:16:14;5.30;99.90
14093;DHT22;7123;49.468;10.992;2024-01-30T01:18:41;5.30;99.90
14093;DHT22;7123;49.468;10.992;2024-01-30T01:21:07;5.30;99.90
14093;DHT22;7123;49.468;10.992;2024-01-30T01:23:34;5.30;99.90
14093;DHT22;7123;49.468;10.992;2024-01-30T01:26:01;5.20;99.90
14093;DHT22;7123;49.468;10.992;2024-01-30T01:28:28;5.20;99.90
14093;DHT22;7123;49.468;10.992;2024-01-30T01:30:54;5.20;99.90
14093;DHT22;7123;49.468;10.992;2024-01-30T01:33:25;5.20;99.90
14093;DHT22;7123;49.468;10.992;2024-01-30T01:35:52;5.10;99.90
14093;DHT22;7123;49.468;10.992;2024-01-30T01:38:19;5.10;99.90
14093;DHT22;7123;49.468;10.992;2024-01-30T01:40:46;5.10;99.90
14093;DHT22;7123;49.468;10.992;2024-01-30T01:43:13;5.00;99.90
14093;DHT22;7123;49.468;10.992;2024-01-30T01:45:39;5.00;99.90
14093;DHT22;7123;49.468;10.992;2024-01-30T01:48:07;5.10;99.90
14093;DHT22;7123;49.468;10.992;2024-01-30T01:50:36;5.00;99.90
14093;DHT22;7123;49.468;10.992;2024-01-30T01:53:03;4.90;99.90
14093;DHT22;7123;49.468;10.992;2024-01-30T01:55:31;4.90;99.90
14093;DHT22;7123;49.468;10.992;2024-01-30T01:57:59;4.90;99.90
14093;DHT22;7123;49.468;10.992;2024-01-30T02:00:25;4.90;99.90
14093;DHT22;7123;49.468;10.992;2024-01-30T02:02:53;4.90;99.90
14093;DHT22;7123;49.468;10.992;2024-01-30T02:05:21;4.90;99.90
14093;DHT22;7123;49.468;10.992;2024-01-30T02:07:48;4.90;99.90
14093;DHT22;7123;49.468;10.992;2024-01-30T02:10:15;4.80;99.90
14093;DHT22;7123;49.468;10.992;2024-01-30T02:12:42;4.80;99.90
14093;DHT22;7123;49.468;10.992;2024-01-30T02:15:13;4.80;99.90
14093;DHT22;7123;49.468;10.992;2024-01-30T02:17:40;4.80;99.90
14093;DHT22;7123;49.468;10.992;2024-01-30T02:20:07;4.70;99.90
14093;DHT22;7123;49.468;10.992;2024-01-30T02:22:35;4.70;99.90
14093;DHT22;7123;49.468;10.992;2024-01-30T02:25:03;4.70;99.90
14093;DHT22;7123;49.468;10.992;2024-01-30T02:27:30;4.70;99.90
14093;DHT22;7123;49.468;10.992;2024-01-30T02:29:56;4.70;99.90
14093;DHT22;7123;49.468;10.992;2024-01-30T02:32:23;4.70;99.90
14093;DHT22;7123;49.468;10.992;2024-01-30T02:34:50;4.80;99.90
14093;DHT22;7123;49.468;10.992;2024-01-30T02:37:17;4.80;99.90
14093;DHT22;7123;49.468;10.992;2024-01-30T02:39:43;4.80;99.90
14093;DHT22;7123;49.468;10.992;2024-01-30T02:42:10;4.80;99.90
14093;DHT22;7123;49.468;10.992;2024-01-30T02:44:37;4.70;99.90
14093;DHT22;7123;49.468;10.992;2024-01-30T02:47:04;4.70;99.90
14093;DHT22;7123;49.468;10.992;2024-01-30T02:49:31;4.60;99.90
14093;DHT22;7123;49.468;10.992;2024-01-30T02:51:57;4.60;99.90
14093;DHT22;7123;49.468;10.992;2024-01-30T02:54:24;4.70;99.90
14093;DHT22;7123;49.468;10.992;2024-01-30T02:56:51;4.80;99.90
14093;DHT22;7123;49.468;10.992;2024-01-30T02:59:18;4.80;99.90
14093;DHT22;7123;49.468;10.992;2024-01-30T03:01:45;4.80;99.90
14093;DHT22;7123;49.468;10.992;2024-01-30T03:04:13;4.80;99.90
14093;DHT22;7123;49.468;10.992;2024-01-30T03:06:45;4.80;99.90
14093;DHT22;7123;49.468;10.992;2024-01-30T03:09:13;4.80;99.90
14093;DHT22;7123;49.468;10.992;2024-01-30T03:11:40;4.80;99.90
14093;DHT22;7123;49.468;10.992;2024-01-30T03:14:06;4.80;99.90
14093;DHT22;7123;49.468;10.992;2024-01-30T03:16:34;4.80;99.90
14093;DHT22;7123;49.468;10.992;2024-01-30T03:19:01;4.80;99.90
14093;DHT22;7123;49.468;10.992;2024-01-30T03:21:29;4.80;99.90
14093;DHT22;7123;49.468;10.992;2024-01-30T03:23:56;4.80;99.90
14093;DHT22;7123;49.468;10.992;2024-01-30T03:26:22;4.80;99.90
14093;DHT22;7123;49.468;10.992;2024-01-30T03:28:49;4.80;99.90
14093;DHT22;7123;49.468;10.992;2024-01-30T03:31:16;4.80;99.90
14093;DHT22;7123;49.468;10.992;2024-01-30T03:33:43;4.80;99.90
14093;DHT22;7123;49.468;10.992;2024-01-30T03:36:10;4.80;99.90
14093;DHT22;7123;49.468;10.992;2024-01-30T03:38:37;4.80;99.90
14093;DHT22;7123;49.468;10.992;2024-01-30T03:41:07;4.80;99.90
14093;DHT22;7123;49.468;10.992;2024-01-30T03:43:34;4.80;99.90
14093;DHT22;7123;49.468;10.992;2024-01-30T03:46:02;4.90;99.90
14093;DHT22;7123;49.468;10.992;2024-01-30T03:48:29;4.70;99.90
14093;DHT22;7123;49.468;10.992;2024-01-30T03:50:56;4.80;99.90
14093;DHT22;7123;49.468;10.992;2024-01-30T03:53:23;4.70;99.90
14093;DHT22;7123;49.468;10.992;2024-01-30T03:55:49;4.70;99.90
14093;DHT22;7123;49.468;10.992;2024-01-30T03:58:16;4.70;99.90
14093;DHT22;7123;49.468;10.992;2024-01-30T04:00:43;4.70;99.90
14093;DHT22;7123;49.468;10.992;2024-01-30T04:03:11;4.60;99.90
14093;DHT22;7123;49.468;10.992;2024-01-30T04:05:38;4.60;99.90
14093;DHT22;7123;49.468;10.992;2024-01-30T04:08:05;4.60;99.90
14093;DHT22;7123;49.468;10.992;2024-01-30T04:10:31;4.60;99.90
14093;DHT22;7123;49.468;10.992;2024-01-30T04:12:58;4.60;99.90
14093;DHT22;7123;49.468;10.992;2024-01-30T04:15:26;4.60;99.90
14093;DHT22;7123;49.468;10.992;2024-01-30T04:17:53;4.60;99.90
14093;DHT22;7123;49.468;10.992;2024-01-30T04:20:19;4.60;99.90
14093;DHT22;7123;49.468;10.992;2024-01-30T04:22:46;4.60;99.90
14093;DHT22;7123;49.468;10.992;2024-01-30T04:25:13;4.60;99.90
14093;DHT22;7123;49.468;10.992;2024-01-30T04:27:40;4.60;99.90
14093;DHT22;7123;49.468;10.992;2024-01-30T04:30:08;4.60;99.90
14093;DHT22;7123;49.468;10.992;2024-01-30T04:32:35;4.70;99.90
14093;DHT22;7123;49.468;10.992;2024-01-30T04:35:03;4.80;99.90
14093;DHT22;7123;49.468;10.992;2024-01-30T04:37:35;4.60;99.90
14093;DHT22;7123;49.468;10.992;2024-01-30T04:40:02;4.60;99.90
14093;DHT22;7123;49.468;10.992;2024-01-30T04:42:29;4.70;99.90
14093;DHT22;7123;49.468;10.992;2024-01-30T04:44:56;4.60;99.90
14093;DHT22;7123;49.468;10.992;2024-01-30T04:47:23;4.80;99.90
14093;DHT22;7123;49.468;10.992;2024-01-30T04:49:51;4.70;99.90
14093;DHT22;7123;49.468;10.992;2024-01-30T04:52:18;4.70;99.90
14093;DHT22;7123;49.468;10.992;2024-01-30T04:54:45;4.70;99.90
14093;DHT22;7123;49.468;10.992;2024-01-30T04:57:12;4.60;99.90
14093;DHT22;7123;49.468;10.992;2024-01-30T04:59:39;4.70;99.90
14093;DHT22;7123;49.468;10.992;2024-01-30T05:02:06;4.60;99.90
14093;DHT22;7123;49.468;10.992;2024-01-30T05:04:33;4.70;99.90
14093;DHT22;7123;49.468;10.992;2024-01-30T05:07:00;4.60;99.90
14093;DHT22;7123;49.468;10.992;2024-01-30T05:09:27;4.70;99.90
14093;DHT22;7123;49.468;10.992;2024-01-30T05:11:54;4.60;99.90
14093;DHT22;7123;49.468;10.992;2024-01-30T05:14:21;4.60;99.90
14093;DHT22;7123;49.468;10.992;2024-01-30T05:16:48;4.60;99.90
14093;DHT22;7123;49.468;10.992;2024-01-30T05:19:15;4.60;99.90
14093;DHT22;7123;49.468;10.992;2024-01-30T05:21:42;4.60;99.90
14093;DHT22;7123;49.468;10.992;2024-01-30T05:24:09;4.60;99.90
14093;DHT22;7123;49.468;10.992;2024-01-30T05:26:37;4.60;99.90
14093;DHT22;7123;49.468;10.992;2024-01-30T05:29:04;4.50;99.90
14093;DHT22;7123;49.468;10.992;2024-01-30T05:31:31;4.60;99.90
14093;DHT22;7123;49.468;10.992;2024-01-30T05:33:58;4.50;99.90
14093;DHT22;7123;49.468;10.992;2024-01-30T05:36:25;4.50;99.90
14093;DHT22;7123;49.468;10.992;2024-01-30T05:38:52;4.50;99.90
14093;DHT22;7123;49.468;10.992;2024-01-30T05:41:19;4.50;99.90
14093;DHT22;7123;49.468;10.992;2024-01-30T05:43:45;4.50;99.90
14093;DHT22;7123;49.468;10.992;2024-01-30T05:46:12;4.60;99.90
14093;DHT22;7123;49.468;10.992;2024-01-30T05:48:39;4.60;99.90
14093;DHT22;7123;49.468;10.992;2024-01-30T05:51:07;4.60;99.90
14093;DHT22;7123;49.468;10.992;2024-01-30T05:53:34;4.60;99.90
14093;DHT22;7123;49.468;10.992;2024-01-30T05:56:02;4.60;99.90
14093;DHT22;7123;49.468;10.992;2024-01-30T05:58:29;4.60;99.90
14093;DHT22;7123;49.468;10.992;2024-01-30T06:00:55;4.60;99.90
14093;DHT22;7123;49.468;10.992;2024-01-30T06:03:22;4.60;99.90
14093;DHT22;7123;49.468;10.992;2024-01-30T06:05:49;4.60;99.90
14093;DHT22;7123;49.468;10.992;2024-01-30T06:08:17;4.50;99.90
14093;DHT22;7123;49.468;10.992;2024-01-30T06:10:44;4.80;99.90
14093;DHT22;7123;49.468;10.992;2024-01-30T06:13:11;4.50;99.90
14093;DHT22;7123;49.468;10.992;2024-01-30T06:15:38;4.60;99.90
14093;DHT22;7123;49.468;10.992;2024-01-30T06:18:04;4.50;99.90
14093;DHT22;7123;49.468;10.992;2024-01-30T06:20:31;4.50;99.90
14093;DHT22;7123;49.468;10.992;2024-01-30T06:22:58;4.50;99.90
14093;DHT22;7123;49.468;10.992;2024-01-30T06:25:25;4.50;99.90
14093;DHT22;7123;49.468;10.992;2024-01-30T06:27:52;4.50;99.90
14093;DHT22;7123;49.468;10.992;2024-01-30T06:30:19;4.50;99.90
14093;DHT22;7123;49.468;10.992;2024-01-30T06:32:45;4.50;99.90
14093;DHT22;7123;49.468;10.992;2024-01-30T06:35:12;4.50;99.90
14093;DHT22;7123;49.468;10.992;2024-01-30T06:37:39;4.60;99.90
14093;DHT22;7123;49.468;10.992;2024-01-30T06:40:06;4.50;99.90
14093;DHT22;7123;49.468;10.992;2024-01-30T06:42:33;4.50;99.90
14093;DHT22;7123;49.468;10.992;2024-01-30T06:45:00;4.50;99.90
14093;DHT22;7123;49.468;10.992;2024-01-30T06:47:27;4.50;99.90
14093;DHT22;7123;49.468;10.992;2024-01-30T06:49:55;4.50;99.90
14093;DHT22;7123;49.468;10.992;2024-01-30T06:52:22;4.50;99.90
14093;DHT22;7123;49.468;10.992;2024-01-30T06:54:48;4.50;99.90
14093;DHT22;7123;49.468;10.992;2024-01-30T06:57:15;4.50;99.90
14093;DHT22;7123;49.468;10.992;2024-01-30T06:59:42;4.50;99.90
14093;DHT22;7123;49.468;10.992;2024-01-30T07:02:10;4.40;99.90
14093;DHT22;7123;49.468;10.992;2024-01-30T07:04:37;4.50;99.90
14093;DHT22;7123;49.468;10.992;2024-01-30T07:07:07;4.40;99.90
14093;DHT22;7123;49.468;10.992;2024-01-30T07:09:39;4.50;99.90
14093;DHT22;7123;49.468;10.992;2024-01-30T07:12:06;4.50;99.90
14093;DHT22;7123;49.468;10.992;2024-01-30T07:14:33;4.50;99.90
14093;DHT22;7123;49.468;10.992;2024-01-30T07:17:00;4.50;99.90
14093;DHT22;7123;49.468;10.992;2024-01-30T07:19:27;4.60;99.90
14093;DHT22;7123;49.468;10.992;2024-01-30T07:21:54;4.50;99.90
14093;DHT22;7123;49.468;10.992;2024-01-30T07:24:20;4.60;99.90
14093;DHT22;7123;49.468;10.992;2024-01-30T07:26:47;4.60;99.90
14093;DHT22;7123;49.468;10.992;2024-01-30T07:29:14;4.60;99.90
14093;DHT22;7123;49.468;10.992;2024-01-30T07:31:41;4.60;99.90
14093;DHT22;7123;49.468;10.992;2024-01-30T07:34:08;4.60;99.90
14093;DHT22;7123;49.468;10.992;2024-01-30T07:36:35;4.60;99.90
14093;DHT22;7123;49.468;10.992;2024-01-30T07:39:02;4.60;99.90
14093;DHT22;7123;49.468;10.992;2024-01-30T07:41:29;4.60;99.90
14093;DHT22;7123;49.468;10.992;2024-01-30T07:43:55;4.60;99.90
14093;DHT22;7123;49.468;10.992;2024-01-30T07:46:22;4.60;99.90
14093;DHT22;7123;49.468;10.992;2024-01-30T07:48:49;4.60;99.90
14093;DHT22;7123;49.468;10.992;2024-01-30T07:51:20;4.60;99.90
14093;DHT22;7123;49.468;10.992;2024-01-30T07:53:53;4.60;99.90
14093;DHT22;7123;49.468;10.992;2024-01-30T07:56:19;4.60;99.90
14093;DHT22;7123;49.468;10.992;2024-01-30T07:58:46;4.60;99.90
14093;DHT22;7123;49.468;10.992;2024-01-30T08:01:15;4.60;99.90
14093;DHT22;7123;49.468;10.992;2024-01-30T08:03:42;4.50;99.90
14093;DHT22;7123;49.468;10.992;2024-01-30T08:06:09;4.50;99.90
14093;DHT22;7123;49.468;10.992;2024-01-30T08:08:36;4.50;99.90
14093;DHT22;7123;49.468;10.992;2024-01-30T08:11:04;4.50;99.90
14093;DHT22;7123;49.468;10.992;2024-01-30T08:13:31;4.50;99.90
14093;DHT22;7123;49.468;10.992;2024-01-30T08:15:58;4.50;99.90
14093;DHT22;7123;49.468;10.992;2024-01-30T08:18:25;4.50;99.90
14093;DHT22;7123;49.468;10.992;2024-01-30T08:20:52;4.60;99.90
14093;DHT22;7123;49.468;10.992;2024-01-30T08:23:18;4.60;99.90
14093;DHT22;7123;49.468;10.992;2024-01-30T08:25:45;4.60;99.90
14093;DHT22;7123;49.468;10.992;2024-01-30T08:28:12;4.60;99.90
14093;DHT22;7123;49.468;10.992;2024-01-30T08:30:39;4.60;99.90
14093;DHT22;7123;49.468;10.992;2024-01-30T08:33:06;4.60;99.90
14093;DHT22;7123;49.468;10.992;2024-01-30T08:35:33;4.60;99.90
14093;DHT22;7123;49.468;10.992;2024-01-30T08:38:00;4.70;99.90
14093;DHT22;7123;49.468;10.992;2024-01-30T08:40:27;4.60;99.90
14093;DHT22;7123;49.468;10.992;2024-01-30T08:42:55;4.70;99.90
14093;DHT22;7123;49.468;10.992;2024-01-30T08:45:22;4.70;99.90
14093;DHT22;7123;49.468;10.992;2024-01-30T08:47:49;4.90;99.90
14093;DHT22;7123;49.468;10.992;2024-01-30T08:50:16;4.70;99.90
14093;DHT22;7123;49.468;10.992;2024-01-30T08:52:42;4.70;99.90
14093;DHT22;7123;49.468;10.992;2024-01-30T08:55:12;4.80;99.90
14093;DHT22;7123;49.468;10.992;2024-01-30T08:57:39;4.80;99.90
14093;DHT22;7123;49.468;10.992;2024-01-30T09:00:06;4.80;99.90
14093;DHT22;7123;49.468;10.992;2024-01-30T09:02:34;4.80;99.90
14093;DHT22;7123;49.468;10.992;2024-01-30T09:05:00;4.80;99.90
14093;DHT22;7123;49.468;10.992;2024-01-30T09:07:27;5.00;99.90
14093;DHT22;7123;49.468;10.992;2024-01-30T09:09:54;4.80;99.90
14093;DHT22;7123;49.468;10.992;2024-01-30T09:12:21;4.80;99.90
14093;DHT22;7123;49.468;10.992;2024-01-30T09:14:48;4.90;99.90
14093;DHT22;7123;49.468;10.992;2024-01-30T09:17:14;4.90;99.90
14093;DHT22;7123;49.468;10.992;2024-01-30T09:19:41;4.90;99.90
14093;DHT22;7123;49.468;10.992;2024-01-30T09:22:08;4.90;99.90
14093;DHT22;7123;49.468;10.992;2024-01-30T09:24:35;5.00;99.90
14093;DHT22;7123;49.468;10.992;2024-01-30T09:27:02;5.00;99.90
14093;DHT22;7123;49.468;10.992;2024-01-30T09:29:29;5.10;99.90
14093;DHT22;7123;49.468;10.992;2024-01-30T09:31:55;5.00;99.90
14093;DHT22;7123;49.468;10.992;2024-01-30T09:34:22;5.10;99.90
14093;DHT22;7123;49.468;10.992;2024-01-30T09:36:49;5.10;99.90
14093;DHT22;7123;49.468;10.992;2024-01-30T09:39:16;5.10;99.90
14093;DHT22;7123;49.468;10.992;2024-01-30T09:42:03;5.10;99.90
14093;DHT22;7123;49.468;10.992;2024-01-30T09:44:32;5.10;99.90
14093;DHT22;7123;49.468;10.992;2024-01-30T09:47:01;5.20;99.90
14093;DHT22;7123;49.468;10.992;2024-01-30T09:49:32;5.20;99.90
14093;DHT22;7123;49.468;10.992;2024-01-30T09:52:00;5.20;99.90
14093;DHT22;7123;49.468;10.992;2024-01-30T09:54:30;5.20;99.90
14093;DHT22;7123;49.468;10.992;2024-01-30T09:57:02;5.20;99.90
14093;DHT22;7123;49.468;10.992;2024-01-30T09:59:29;5.30;99.90
14093;DHT22;7123;49.468;10.992;2024-01-30T10:01:56;5.30;99.90
14093;DHT22;7123;49.468;10.992;2024-01-30T10:04:23;5.30;99.90
14093;DHT22;7123;49.468;10.992;2024-01-30T10:06:51;5.40;99.90
14093;DHT22;7123;49.468;10.992;2024-01-30T10:09:18;5.40;99.90
14093;DHT22;7123;49.468;10.992;2024-01-30T10:11:45;5.50;99.90
14093;DHT22;7123;49.468;10.992;2024-01-30T10:14:31;5.50;99.90
14093;DHT22;7123;49.468;10.992;2024-01-30T10:16:58;5.50;99.90
14093;DHT22;7123;49.468;10.992;2024-01-30T10:19:25;5.60;99.90
14093;DHT22;7123;49.468;10.992;2024-01-30T10:21:52;5.60;99.90
14093;DHT22;7123;49.468;10.992;2024-01-30T10:24:24;5.60;99.90
14093;DHT22;7123;49.468;10.992;2024-01-30T10:26:51;5.60;99.90
14093;DHT22;7123;49.468;10.992;2024-01-30T10:29:18;5.60;99.90
14093;DHT22;7123;49.468;10.992;2024-01-30T10:31:44;5.70;99.90
14093;DHT22;7123;49.468;10.992;2024-01-30T10:34:11;5.70;99.90
14093;DHT22;7123;49.468;10.992;2024-01-30T10:36:50;5.70;99.90
14093;DHT22;7123;49.468;10.992;2024-01-30T10:39:20;5.70;99.90
14093;DHT22;7123;49.468;10.992;2024-01-30T10:41:47;5.70;99.90
14093;DHT22;7123;49.468;10.992;2024-01-30T10:44:19;5.70;99.90
14093;DHT22;7123;49.468;10.992;2024-01-30T10:46:52;5.70;99.90
14093;DHT22;7123;49.468;10.992;2024-01-30T10:49:21;5.80;99.90
14093;DHT22;7123;49.468;10.992;2024-01-30T10:51:49;5.80;99.90
14093;DHT22;7123;49.468;10.992;2024-01-30T10:54:20;5.80;99.90
14093;DHT22;7123;49.468;10.992;2024-01-30T10:56:48;5.80;99.90
14093;DHT22;7123;49.468;10.992;2024-01-30T10:59:16;5.80;99.90
14093;DHT22;7123;49.468;10.992;2024-01-30T11:01:43;5.80;99.90
14093;DHT22;7123;49.468;10.992;2024-01-30T11:04:10;5.80;99.90
14093;DHT22;7123;49.468;10.992;2024-01-30T11:06:43;5.90;99.90
14093;DHT22;7123;49.468;10.992;2024-01-30T11:09:11;6.00;99.90
14093;DHT22;7123;49.468;10.992;2024-01-30T11:11:56;6.00;99.90
14093;DHT22;7123;49.468;10.992;2024-01-30T11:14:27;6.10;99.90
14093;DHT22;7123;49.468;10.992;2024-01-30T11:16:58;6.10;99.90
14093;DHT22;7123;49.468;10.992;2024-01-30T11:19:26;6.10;99.90
14093;DHT22;7123;49.468;10.992;2024-01-30T11:21:54;6.20;99.90
14093;DHT22;7123;49.468;10.992;2024-01-30T11:24:24;6.20;99.90
14093;DHT22;7123;49.468;10.992;2024-01-30T11:27:00;6.20;99.90
14093;DHT22;7123;49.468;10.992;2024-01-30T11:29:30;6.20;99.90
14093;DHT22;7123;49.468;10.992;2024-01-30T11:31:58;6.30;99.90
14093;DHT22;7123;49.468;10.992;2024-01-30T11:34:26;6.30;99.90
14093;DHT22;7123;49.468;10.992;2024-01-30T11:37:01;6.30;99.90
14093;DHT22;7123;49.468;10.992;2024-01-30T11:39:30;6.30;99.90
14093;DHT22;7123;49.468;10.992;2024-01-30T11:41:57;6.30;99.90
14093;DHT22;7123;49.468;10.992;2024-01-30T11:44:25;6.50;99.90
14093;DHT22;7123;49.468;10.992;2024-01-30T11:46:52;6.50;99.90
14093;DHT22;7123;49.468;10.992;2024-01-30T11:49:19;6.50;99.90
14093;DHT22;7123;49.468;10.992;2024-01-30T11:51:47;6.50;99.90
14093;DHT22;7123;49.468;10.992;2024-01-30T11:54:17;6.60;99.90
14093;DHT22;7123;49.468;10.992;2024-01-30T11:56:44;6.60;99.90
14093;DHT22;7123;49.468;10.992;2024-01-30T11:59:10;6.60;99.90
14093;DHT22;7123;49.468;10.992;2024-01-30T12:01:37;6.60;99.90
14093;DHT22;7123;49.468;10.992;2024-01-30T12:04:04;6.70;99.90
14093;DHT22;7123;49.468;10.992;2024-01-30T12:06:36;6.70;99.90
14093;DHT22;7123;49.468;10.992;2024-01-30T12:09:03;6.90;99.90
14093;DHT22;7123;49.468;10.992;2024-01-30T12:11:31;7.00;99.90
14093;DHT22;7123;49.468;10.992;2024-01-30T12:13:58;7.10;99.90
14093;DHT22;7123;49.468;10.992;2024-01-30T12:16:31;7.20;99.90
14093;DHT22;7123;49.468;10.992;2024-01-30T12:19:01;7.40;99.90
14093;DHT22;7123;49.468;10.992;2024-01-30T12:21:29;7.30;99.90
14093;DHT22;7123;49.468;10.992;2024-01-30T12:23:57;7.40;99.90
14093;DHT22;7123;49.468;10.992;2024-01-30T12:26:26;7.40;99.90
14093;DHT22;7123;49.468;10.992;2024-01-30T12:28:56;7.40;99.90
14093;DHT22;7123;49.468;10.992;2024-01-30T12:31:28;7.30;99.90
14093;DHT22;7123;49.468;10.992;2024-01-30T12:33:56;7.30;99.90
14093;DHT22;7123;49.468;10.992;2024-01-30T12:36:25;7.40;99.90
14093;DHT22;7123;49.468;10.992;2024-01-30T12:38:54;7.40;99.90
14093;DHT22;7123;49.468;10.992;2024-01-30T12:41:25;7.50;99.90
14093;DHT22;7123;49.468;10.992;2024-01-30T12:43:57;7.60;99.90
14093;DHT22;7123;49.468;10.992;2024-01-30T12:46:30;7.60;99.90
14093;DHT22;7123;49.468;10.992;2024-01-30T12:48:57;7.60;99.90
14093;DHT22;7123;49.468;10.992;2024-01-30T12:51:24;7.60;99.90
14093;DHT22;7123;49.468;10.992;2024-01-30T12:53:51;7.70;99.90
14093;DHT22;7123;49.468;10.992;2024-01-30T12:56:17;7.60;99.90
14093;DHT22;7123;49.468;10.992;2024-01-30T12:58:44;7.60;99.90
14093;DHT22;7123;49.468;10.992;2024-01-30T13:01:16;7.50;99.90
14093;DHT22;7123;49.468;10.992;2024-01-30T13:03:43;7.60;99.90
14093;DHT22;7123;49.468;10.992;2024-01-30T13:06:10;7.60;99.90
14093;DHT22;7123;49.468;10.992;2024-01-30T13:08:37;7.70;99.90
14093;DHT22;7123;49.468;10.992;2024-01-30T13:11:04;7.80;99.90
14093;DHT22;7123;49.468;10.992;2024-01-30T13:13:31;7.70;99.90
14093;DHT22;7123;49.468;10.992;2024-01-30T13:15:57;7.80;99.90
14093;DHT22;7123;49.468;10.992;2024-01-30T13:18:25;7.80;99.90
14093;DHT22;7123;49.468;10.992;2024-01-30T13:20:51;7.80;99.90
14093;DHT22;7123;49.468;10.992;2024-01-30T13:23:19;7.80;99.90
14093;DHT22;7123;49.468;10.992;2024-01-30T13:25:46;7.80;99.90
14093;DHT22;7123;49.468;10.992;2024-01-30T13:28:12;7.80;99.90
14093;DHT22;7123;49.468;10.992;2024-01-30T13:30:39;7.70;99.90
14093;DHT22;7123;49.468;10.992;2024-01-30T13:33:06;7.80;99.90
14093;DHT22;7123;49.468;10.992;2024-01-30T13:35:33;7.90;99.90
14093;DHT22;7123;49.468;10.992;2024-01-30T13:38:00;7.90;99.90
14093;DHT22;7123;49.468;10.992;2024-01-30T13:40:27;8.00;99.90
14093;DHT22;7123;49.468;10.992;2024-01-30T13:42:53;7.90;99.90
14093;DHT22;7123;49.468;10.992;2024-01-30T13:45:21;7.90;99.90
14093;DHT22;7123;49.468;10.992;2024-01-30T13:47:49;7.90;99.90
14093;DHT22;7123;49.468;10.992;2024-01-30T13:50:16;8.00;99.90
14093;DHT22;7123;49.468;10.992;2024-01-30T13:52:43;8.00;99.90
14093;DHT22;7123;49.468;10.992;2024-01-30T13:55:11;8.00;99.90
14093;DHT22;7123;49.468;10.992;2024-01-30T13:57:39;8.00;99.90
14093;DHT22;7123;49.468;10.992;2024-01-30T14:00:06;8.10;99.90
14093;DHT22;7123;49.468;10.992;2024-01-30T14:02:35;8.10;99.90
14093;DHT22;7123;49.468;10.992;2024-01-30T14:05:02;8.10;99.90
14093;DHT22;7123;49.468;10.992;2024-01-30T14:07:32;8.10;99.90
14093;DHT22;7123;49.468;10.992;2024-01-30T14:10:00;8.00;99.90
14093;DHT22;7123;49.468;10.992;2024-01-30T14:12:27;8.20;99.90
14093;DHT22;7123;49.468;10.992;2024-01-30T14:14:57;8.20;99.90
14093;DHT22;7123;49.468;10.992;2024-01-30T14:17:24;8.20;99.90
14093;DHT22;7123;49.468;10.992;2024-01-30T14:19:51;8.30;99.90
14093;DHT22;7123;49.468;10.992;2024-01-30T14:22:18;8.20;99.90
14093;DHT22;7123;49.468;10.992;2024-01-30T14:24:44;8.20;99.90
14093;DHT22;7123;49.468;10.992;2024-01-30T14:27:12;8.20;99.90
14093;DHT22;7123;49.468;10.992;2024-01-30T14:29:39;8.30;99.90
14093;DHT22;7123;49.468;10.992;2024-01-30T14:32:07;8.40;99.90
14093;DHT22;7123;49.468;10.992;2024-01-30T14:34:34;8.40;99.90
14093;DHT22;7123;49.468;10.992;2024-01-30T14:37:02;8.40;99.90
14093;DHT22;7123;49.468;10.992;2024-01-30T14:39:29;8.40;99.90
14093;DHT22;7123;49.468;10.992;2024-01-30T14:41:56;8.50;99.90
14093;DHT22;7123;49.468;10.992;2024-01-30T14:44:23;8.50;99.90
14093;DHT22;7123;49.468;10.992;2024-01-30T14:46:50;8.50;99.90
14093;DHT22;7123;49.468;10.992;2024-01-30T14:49:17;8.40;99.90
14093;DHT22;7123;49.468;10.992;2024-01-30T14:51:44;8.30;99.90
14093;DHT22;7123;49.468;10.992;2024-01-30T14:54:10;8.20;99.90
14093;DHT22;7123;49.468;10.992;2024-01-30T14:56:38;8.10;99.90
14093;DHT22;7123;49.468;10.992;2024-01-30T14:59:04;8.20;99.90
14093;DHT22;7123;49.468;10.992;2024-01-30T15:01:31;8.20;99.90
14093;DHT22;7123;49.468;10.992;2024-01-30T15:03:58;8.30;99.90
14093;DHT22;7123;49.468;10.992;2024-01-30T15:06:25;8.40;99.90
14093;DHT22;7123;49.468;10.992;2024-01-30T15:08:52;8.50;99.90
14093;DHT22;7123;49.468;10.992;2024-01-30T15:11:20;8.50;99.90
14093;DHT22;7123;49.468;10.992;2024-01-30T15:13:46;8.50;99.90
14093;DHT22;7123;49.468;10.992;2024-01-30T15:16:13;8.50;99.90
14093;DHT22;7123;49.468;10.992;2024-01-30T15:18:41;8.50;99.90
14093;DHT22;7123;49.468;10.992;2024-01-30T15:21:08;8.40;99.90
14093;DHT22;7123;49.468;10.992;2024-01-30T15:23:35;8.30;99.90
14093;DHT22;7123;49.468;10.992;2024-01-30T15:26:02;8.20;99.90
14093;DHT22;7123;49.468;10.992;2024-01-30T15:28:37;8.20;99.90
14093;DHT22;7123;49.468;10.992;2024-01-30T15:31:07;8.10;99.90
14093;DHT22;7123;49.468;10.992;2024-01-30T15:33:34;8.00;99.90
14093;DHT22;7123;49.468;10.992;2024-01-30T15:36:02;7.90;99.90
14093;DHT22;7123;49.468;10.992;2024-01-30T15:38:29;7.80;99.90
14093;DHT22;7123;49.468;10.992;2024-01-30T15:40:56;7.80;99.90
14093;DHT22;7123;49.468;10.992;2024-01-30T15:43:23;7.80;99.90
14093;DHT22;7123;49.468;10.992;2024-01-30T15:45:50;7.80;99.90